sensor_id;sensor_type;location;lat;lon;timestamp;pressure;altitude;pressure_sealevel;temperature;humidity
10510;BME280;5303;53.266;10.410;2023-04-09T00:00:15;102500.75;;;6.50;85.31
10510;BME280;5303;53.266;10.410;2023-04-09T00:02:42;102506.84;;;6.49;85.36
10510;BME280;5303;53.266;10.410;2023-04-09T00:05:07;102507.66;;;6.48;85.69
10510;BME280;5303;53.266;10.410;2023-04-09T00:07:32;102504.09;;;6.46;85.73
10510;BME280;5303;53.266;10.410;2023-04-09T00:09:58;102510.22;;;6.46;85.71
10510;BME280;5303;53.266;10.410;2023-04-09T00:12:23;102510.22;;;6.46;85.87
10510;BME280;5303;53.266;10.410;2023-04-09T00:14:48;102509.34;;;6.46;85.68
10510;BME280;5303;53.266;10.410;2023-04-09T00:17:14;102513.63;;;6.44;85.79
10510;BME280;5303;53.266;10.410;2023-04-09T00:19:39;102507.66;;;6.48;85.70
10510;BME280;5303;53.266;10.410;2023-04-09T00:22:05;102509.41;;;6.47;86.00
10510;BME280;5303;53.266;10.410;2023-04-09T00:24:30;102500.63;;;6.47;85.65
10510;BME280;5303;53.266;10.410;2023-04-09T00:26:55;102505.03;;;6.48;85.53
10510;BME280;5303;53.266;10.410;2023-04-09T00:29:21;102499.03;;;6.50;85.89
10510;BME280;5303;53.266;10.410;2023-04-09T00:31:46;102501.59;;;6.49;85.67
10510;BME280;5303;53.266;10.410;2023-04-09T00:34:11;102492.81;;;6.48;85.80
10510;BME280;5303;53.266;10.410;2023-04-09T00:36:37;102495.50;;;6.50;85.77
10510;BME280;5303;53.266;10.410;2023-04-09T00:39:02;102498.97;;;6.49;85.28
10510;BME280;5303;53.266;10.410;2023-04-09T00:41:27;102500.75;;;6.50;85.39
10510;BME280;5303;53.266;10.410;2023-04-09T00:43:55;102488.47;;;6.49;85.37
10510;BME280;5303;53.266;10.410;2023-04-09T00:46:21;102491.94;;;6.48;85.30
10510;BME280;5303;53.266;10.410;2023-04-09T00:48:46;102491.94;;;6.48;85.62
10510;BME280;5303;53.266;10.410;2023-04-09T00:51:11;102500.63;;;6.47;85.61
10510;BME280;5303;53.266;10.410;2023-04-09T00:53:37;102500.69;;;6.48;85.76
10510;BME280;5303;53.266;10.410;2023-04-09T00:56:03;102491.94;;;6.48;85.80
10510;BME280;5303;53.266;10.410;2023-04-09T00:58:28;102493.59;;;6.46;85.69
10510;BME280;5303;53.266;10.410;2023-04-09T01:00:54;102491.03;;;6.47;86.01
10510;BME280;5303;53.266;10.410;2023-04-09T01:03:19;102496.22;;;6.46;85.73
10510;BME280;5303;53.266;10.410;2023-04-09T01:06:07;102489.25;;;6.46;85.64
10510;BME280;5303;53.266;10.410;2023-04-09T01:09:47;102499.84;;;6.49;85.65
10510;BME280;5303;53.266;10.410;2023-04-09T01:12:09;102492.00;;;6.49;85.53
10510;BME280;5303;53.266;10.410;2023-04-09T01:15:09;102493.72;;;6.49;85.74
10510;BME280;5303;53.266;10.410;2023-04-09T01:17:55;102495.50;;;6.50;85.59
10510;BME280;5303;53.266;10.410;2023-04-09T01:20:38;102498.84;;;6.46;85.46
10510;BME280;5303;53.266;10.410;2023-04-09T01:28:41;102496.91;;;6.42;86.25
10510;BME280;5303;53.266;10.410;2023-04-09T01:31:16;102491.44;;;6.35;86.41
10510;BME280;5303;53.266;10.410;2023-04-09T01:33:43;102485.41;;;6.38;86.11
10510;BME280;5303;53.266;10.410;2023-04-09T01:36:09;102488.03;;;6.38;86.39
10510;BME280;5303;53.266;10.410;2023-04-09T01:38:36;102484.53;;;6.38;86.40
10510;BME280;5303;53.266;10.410;2023-04-09T01:41:03;102475.72;;;6.35;86.05
10510;BME280;5303;53.266;10.410;2023-04-09T01:43:30;102482.75;;;6.37;86.57
10510;BME280;5303;53.266;10.410;2023-04-09T01:45:58;102482.75;;;6.37;86.29
10510;BME280;5303;53.266;10.410;2023-04-09T01:48:24;102485.38;;;6.37;86.46
10510;BME280;5303;53.266;10.410;2023-04-09T01:50:50;102475.72;;;6.35;86.52
10510;BME280;5303;53.266;10.410;2023-04-09T01:53:16;102485.38;;;6.37;86.64
10510;BME280;5303;53.266;10.410;2023-04-09T01:55:41;102479.28;;;6.38;86.71
10510;BME280;5303;53.266;10.410;2023-04-09T01:58:07;102478.44;;;6.39;86.84
10510;BME280;5303;53.266;10.410;2023-04-09T02:00:38;102477.88;;;6.46;86.92
10510;BME280;5303;53.266;10.410;2023-04-09T02:03:07;102478.78;;;6.46;86.39
10510;BME280;5303;53.266;10.410;2023-04-09T02:05:37;102478.09;;;6.52;86.07
10510;BME280;5303;53.266;10.410;2023-04-09T02:08:06;102472.38;;;6.40;86.25
10510;BME280;5303;53.266;10.410;2023-04-09T02:10:37;102473.59;;;6.48;86.60
10510;BME280;5303;53.266;10.410;2023-04-09T02:13:03;102470.69;;;6.42;86.16
10510;BME280;5303;53.266;10.410;2023-04-09T02:15:30;102472.16;;;6.33;86.33
10510;BME280;5303;53.266;10.410;2023-04-09T02:17:56;102463.28;;;6.31;86.63
10510;BME280;5303;53.266;10.410;2023-04-09T02:20:22;102467.47;;;6.26;86.59
10510;BME280;5303;53.266;10.410;2023-04-09T02:22:47;102465.63;;;6.24;86.61
10510;BME280;5303;53.266;10.410;2023-04-09T02:25:13;102468.16;;;6.22;87.32
10510;BME280;5303;53.266;10.410;2023-04-09T02:27:39;102466.44;;;6.23;87.07
10510;BME280;5303;53.266;10.410;2023-04-09T02:30:05;102465.63;;;6.24;87.32
10510;BME280;5303;53.266;10.410;2023-04-09T02:32:30;102464.59;;;6.20;87.10
10510;BME280;5303;53.266;10.410;2023-04-09T02:34:56;102466.25;;;6.18;87.09
10510;BME280;5303;53.266;10.410;2023-04-09T02:37:21;102464.47;;;6.17;87.55
10510;BME280;5303;53.266;10.410;2023-04-09T02:39:46;102462.69;;;6.16;87.47
10510;BME280;5303;53.266;10.410;2023-04-09T02:42:11;102461.75;;;6.14;87.60
10510;BME280;5303;53.266;10.410;2023-04-09T02:44:37;102459.13;;;6.14;87.50
10510;BME280;5303;53.266;10.410;2023-04-09T02:47:03;102461.66;;;6.13;87.71
10510;BME280;5303;53.266;10.410;2023-04-09T02:49:28;102458.97;;;6.11;87.59
10510;BME280;5303;53.266;10.410;2023-04-09T02:51:53;102463.19;;;6.07;87.60
10510;BME280;5303;53.266;10.410;2023-04-09T02:54:19;102465.19;;;6.13;87.87
10510;BME280;5303;53.266;10.410;2023-04-09T02:56:44;102454.94;;;6.19;87.66
10510;BME280;5303;53.266;10.410;2023-04-09T02:59:09;102450.53;;;6.18;87.27
10510;BME280;5303;53.266;10.410;2023-04-09T03:01:35;102447.59;;;6.11;87.37
10510;BME280;5303;53.266;10.410;2023-04-09T03:04:00;102453.59;;;6.08;87.81
10510;BME280;5303;53.266;10.410;2023-04-09T03:06:26;102441.84;;;6.19;87.68
10510;BME280;5303;53.266;10.410;2023-04-09T03:08:51;102443.50;;;6.17;87.42
10510;BME280;5303;53.266;10.410;2023-04-09T03:11:16;102444.78;;;6.06;87.66
10510;BME280;5303;53.266;10.410;2023-04-09T03:13:42;102445.69;;;6.06;88.00
10510;BME280;5303;53.266;10.410;2023-04-09T03:16:07;102444.13;;;6.12;87.33
10510;BME280;5303;53.266;10.410;2023-04-09T03:18:34;102443.91;;;6.05;87.63
10510;BME280;5303;53.266;10.410;2023-04-09T03:21:03;102445.56;;;6.03;88.03
10510;BME280;5303;53.266;10.410;2023-04-09T03:23:29;102441.22;;;6.04;87.38
10510;BME280;5303;53.266;10.410;2023-04-09T03:26:03;102446.69;;;6.10;87.64
10510;BME280;5303;53.266;10.410;2023-04-09T03:28:29;102439.69;;;6.09;87.87
10510;BME280;5303;53.266;10.410;2023-04-09T03:30:54;102439.56;;;6.06;87.57
10510;BME280;5303;53.266;10.410;2023-04-09T03:33:20;102444.69;;;6.03;87.67
10510;BME280;5303;53.266;10.410;2023-04-09T03:35:45;102446.31;;;6.01;87.51
10510;BME280;5303;53.266;10.410;2023-04-09T03:38:10;102452.31;;;5.98;87.97
10510;BME280;5303;53.266;10.410;2023-04-09T03:40:35;102443.13;;;6.08;87.51
10510;BME280;5303;53.266;10.410;2023-04-09T03:43:01;102444.69;;;6.03;87.41
10510;BME280;5303;53.266;10.410;2023-04-09T03:45:26;102448.94;;;6.01;87.35
10510;BME280;5303;53.266;10.410;2023-04-09T03:47:53;102447.22;;;6.01;87.93
10510;BME280;5303;53.266;10.410;2023-04-09T03:50:18;102454.88;;;5.97;88.12
10510;BME280;5303;53.266;10.410;2023-04-09T03:52:44;102451.44;;;5.98;88.19
10510;BME280;5303;53.266;10.410;2023-04-09T03:55:09;102454.38;;;6.05;87.98
10510;BME280;5303;53.266;10.410;2023-04-09T03:57:35;102447.34;;;6.04;87.42
10510;BME280;5303;53.266;10.410;2023-04-09T04:00:00;102443.84;;;6.04;87.95
10510;BME280;5303;53.266;10.410;2023-04-09T04:02:25;102438.66;;;6.05;87.68
10510;BME280;5303;53.266;10.410;2023-04-09T04:04:51;102442.75;;;5.99;87.81
10510;BME280;5303;53.266;10.410;2023-04-09T04:07:16;102441.91;;;6.00;87.99
10510;BME280;5303;53.266;10.410;2023-04-09T04:09:41;102438.22;;;5.95;87.51
10510;BME280;5303;53.266;10.410;2023-04-09T04:12:07;102435.72;;;5.98;87.87
10510;BME280;5303;53.266;10.410;2023-04-09T04:14:32;102431.50;;;6.01;87.52
10510;BME280;5303;53.266;10.410;2023-04-09T04:16:57;102440.19;;;6.00;87.72
10510;BME280;5303;53.266;10.410;2023-04-09T04:19:23;102436.66;;;6.00;87.60
10510;BME280;5303;53.266;10.410;2023-04-09T04:21:48;102436.56;;;5.97;87.83
10510;BME280;5303;53.266;10.410;2023-04-09T04:24:13;102428.69;;;5.97;87.85
10510;BME280;5303;53.266;10.410;2023-04-09T04:26:38;102433.94;;;5.97;87.63
10510;BME280;5303;53.266;10.410;2023-04-09T04:29:04;102437.38;;;5.96;88.12
10510;BME280;5303;53.266;10.410;2023-04-09T04:31:29;102447.91;;;5.97;88.02
10510;BME280;5303;53.266;10.410;2023-04-09T04:33:54;102451.44;;;5.98;87.88
10510;BME280;5303;53.266;10.410;2023-04-09T04:36:20;102445.38;;;5.99;88.13
10510;BME280;5303;53.266;10.410;2023-04-09T04:38:45;102441.00;;;5.99;88.19
10510;BME280;5303;53.266;10.410;2023-04-09T04:41:10;102447.22;;;6.01;87.79
10510;BME280;5303;53.266;10.410;2023-04-09T04:43:36;102450.81;;;6.03;88.13
10510;BME280;5303;53.266;10.410;2023-04-09T04:46:01;102452.59;;;6.04;88.08
10510;BME280;5303;53.266;10.410;2023-04-09T04:48:27;102457.00;;;6.05;88.42
10510;BME280;5303;53.266;10.410;2023-04-09T04:50:54;102452.53;;;6.03;88.29
10510;BME280;5303;53.266;10.410;2023-04-09T04:53:21;102456.94;;;6.04;88.26
10510;BME280;5303;53.266;10.410;2023-04-09T04:55:46;102454.56;;;6.10;88.22
10510;BME280;5303;53.266;10.410;2023-04-09T04:58:11;102456.34;;;6.11;88.14
10510;BME280;5303;53.266;10.410;2023-04-09T05:00:36;102454.00;;;6.17;88.05
10510;BME280;5303;53.266;10.410;2023-04-09T05:03:02;102456.66;;;6.19;88.28
10510;BME280;5303;53.266;10.410;2023-04-09T05:05:27;102455.00;;;6.21;88.31
10510;BME280;5303;53.266;10.410;2023-04-09T05:07:52;102450.81;;;6.24;88.20
10510;BME280;5303;53.266;10.410;2023-04-09T05:10:18;102450.91;;;6.27;88.11
10510;BME280;5303;53.266;10.410;2023-04-09T05:12:43;102463.06;;;6.25;87.79
10510;BME280;5303;53.266;10.410;2023-04-09T05:15:08;102452.44;;;6.22;88.08
10510;BME280;5303;53.266;10.410;2023-04-09T05:17:33;102454.25;;;6.23;88.08
10510;BME280;5303;53.266;10.410;2023-04-09T05:19:59;102469.38;;;6.30;87.61
10510;BME280;5303;53.266;10.410;2023-04-09T05:22:24;102463.25;;;6.30;87.54
10510;BME280;5303;53.266;10.410;2023-04-09T05:24:49;102465.09;;;6.32;87.72
10510;BME280;5303;53.266;10.410;2023-04-09T05:27:15;102469.13;;;6.45;86.80
10510;BME280;5303;53.266;10.410;2023-04-09T05:29:40;102473.69;;;6.51;85.77
10510;BME280;5303;53.266;10.410;2023-04-09T05:32:06;102473.69;;;6.51;85.64
10510;BME280;5303;53.266;10.410;2023-04-09T05:34:33;102473.94;;;6.34;85.57
10510;BME280;5303;53.266;10.410;2023-04-09T05:36:59;102474.31;;;6.44;85.48
10510;BME280;5303;53.266;10.410;2023-04-09T05:39:24;102480.28;;;6.41;85.06
10510;BME280;5303;53.266;10.410;2023-04-09T05:41:49;102475.56;;;6.32;85.21
10510;BME280;5303;53.266;10.410;2023-04-09T05:44:16;102472.38;;;6.40;85.38
10510;BME280;5303;53.266;10.410;2023-04-09T05:46:41;102480.56;;;6.70;83.85
10510;BME280;5303;53.266;10.410;2023-04-09T05:49:07;102479.50;;;6.64;83.93
10510;BME280;5303;53.266;10.410;2023-04-09T05:51:32;102478.38;;;6.58;84.17
10510;BME280;5303;53.266;10.410;2023-04-09T05:53:57;102483.28;;;6.50;84.11
10510;BME280;5303;53.266;10.410;2023-04-09T05:56:23;102483.81;;;6.42;84.63
10510;BME280;5303;53.266;10.410;2023-04-09T05:58:49;102482.97;;;6.43;85.07
10510;BME280;5303;53.266;10.410;2023-04-09T06:01:15;102478.50;;;6.40;84.90
10510;BME280;5303;53.266;10.410;2023-04-09T06:03:40;102485.69;;;6.44;85.70
10510;BME280;5303;53.266;10.410;2023-04-09T06:06:06;102486.59;;;6.45;85.51
10510;BME280;5303;53.266;10.410;2023-04-09T06:08:31;102482.34;;;6.48;85.26
10510;BME280;5303;53.266;10.410;2023-04-09T06:10:57;102481.81;;;6.57;85.68
10510;BME280;5303;53.266;10.410;2023-04-09T06:13:22;102474.06;;;6.60;85.43
10510;BME280;5303;53.266;10.410;2023-04-09T06:15:48;102470.91;;;6.69;85.78
10510;BME280;5303;53.266;10.410;2023-04-09T06:18:13;102480.94;;;6.79;85.79
10510;BME280;5303;53.266;10.410;2023-04-09T06:20:38;102483.81;;;6.85;85.38
10510;BME280;5303;53.266;10.410;2023-04-09T06:23:04;102488.75;;;7.00;85.34
10510;BME280;5303;53.266;10.410;2023-04-09T06:25:29;102485.63;;;7.10;85.27
10510;BME280;5303;53.266;10.410;2023-04-09T06:27:55;102489.78;;;7.27;84.56
10510;BME280;5303;53.266;10.410;2023-04-09T06:30:20;102486.88;;;7.19;82.86
10510;BME280;5303;53.266;10.410;2023-04-09T06:32:46;102494.44;;;7.12;82.55
10510;BME280;5303;53.266;10.410;2023-04-09T06:35:12;102496.91;;;7.07;82.64
10510;BME280;5303;53.266;10.410;2023-04-09T06:37:38;102496.84;;;7.06;82.54
10510;BME280;5303;53.266;10.410;2023-04-09T06:40:03;102487.53;;;7.14;82.65
10510;BME280;5303;53.266;10.410;2023-04-09T06:42:29;102495.88;;;7.04;82.27
10510;BME280;5303;53.266;10.410;2023-04-09T06:44:54;102496.38;;;7.16;82.25
10510;BME280;5303;53.266;10.410;2023-04-09T06:47:20;102497.38;;;7.19;81.77
10510;BME280;5303;53.266;10.410;2023-04-09T06:49:45;102506.38;;;7.26;80.55
10510;BME280;5303;53.266;10.410;2023-04-09T06:52:10;102508.16;;;7.27;80.95
10510;BME280;5303;53.266;10.410;2023-04-09T06:54:35;102504.75;;;7.30;80.46
10510;BME280;5303;53.266;10.410;2023-04-09T06:57:01;102512.38;;;7.46;80.08
10510;BME280;5303;53.266;10.410;2023-04-09T06:59:26;102509.56;;;7.41;79.12
10510;BME280;5303;53.266;10.410;2023-04-09T07:01:51;102511.34;;;7.42;80.13
10510;BME280;5303;53.266;10.410;2023-04-09T07:04:17;102511.44;;;7.45;80.32
10510;BME280;5303;53.266;10.410;2023-04-09T07:06:42;102508.13;;;7.49;80.13
10510;BME280;5303;53.266;10.410;2023-04-09T07:09:07;102511.44;;;7.45;79.91
10510;BME280;5303;53.266;10.410;2023-04-09T07:11:33;102520.84;;;7.63;80.04
10510;BME280;5303;53.266;10.410;2023-04-09T07:13:58;102521.91;;;7.92;77.98
10510;BME280;5303;53.266;10.410;2023-04-09T07:16:23;102526.41;;;7.96;77.66
10510;BME280;5303;53.266;10.410;2023-04-09T07:18:49;102515.69;;;7.90;77.71
10510;BME280;5303;53.266;10.410;2023-04-09T07:21:15;102507.88;;;7.91;78.59
10510;BME280;5303;53.266;10.410;2023-04-09T07:23:40;102511.25;;;7.87;78.81
10510;BME280;5303;53.266;10.410;2023-04-09T07:26:05;102501.03;;;7.96;78.84
10510;BME280;5303;53.266;10.410;2023-04-09T07:28:31;102505.13;;;8.14;77.44
10510;BME280;5303;53.266;10.410;2023-04-09T07:30:58;102504.28;;;8.15;78.13
10510;BME280;5303;53.266;10.410;2023-04-09T07:33:25;102498.31;;;8.19;76.91
10510;BME280;5303;53.266;10.410;2023-04-09T07:35:50;102500.72;;;8.13;76.99
10510;BME280;5303;53.266;10.410;2023-04-09T07:38:15;102503.88;;;8.28;77.54
10510;BME280;5303;53.266;10.410;2023-04-09T07:40:41;102507.47;;;8.57;73.83
10510;BME280;5303;53.266;10.410;2023-04-09T07:43:06;102510.34;;;8.37;75.33
10510;BME280;5303;53.266;10.410;2023-04-09T07:45:31;102503.09;;;8.57;76.06
10510;BME280;5303;53.266;10.410;2023-04-09T07:47:57;102507.00;;;8.69;74.72
10510;BME280;5303;53.266;10.410;2023-04-09T07:50:22;102505.38;;;8.74;74.88
10510;BME280;5303;53.266;10.410;2023-04-09T07:52:47;102501.19;;;9.09;73.35
10510;BME280;5303;53.266;10.410;2023-04-09T07:55:13;102503.22;;;9.17;73.77
10510;BME280;5303;53.266;10.410;2023-04-09T07:57:38;102504.69;;;9.38;73.25
10510;BME280;5303;53.266;10.410;2023-04-09T08:00:04;102510.09;;;9.72;70.16
10510;BME280;5303;53.266;10.410;2023-04-09T08:02:29;102504.84;;;9.42;69.59
10510;BME280;5303;53.266;10.410;2023-04-09T08:04:55;102493.31;;;9.39;70.66
10510;BME280;5303;53.266;10.410;2023-04-09T08:07:20;102500.81;;;9.55;70.35
10510;BME280;5303;53.266;10.410;2023-04-09T08:09:45;102498.16;;;9.55;69.69
10510;BME280;5303;53.266;10.410;2023-04-09T08:12:11;102499.47;;;9.39;70.59
10510;BME280;5303;53.266;10.410;2023-04-09T08:14:36;102498.84;;;9.48;71.61
10510;BME280;5303;53.266;10.410;2023-04-09T08:17:01;102503.25;;;9.49;70.08
10510;BME280;5303;53.266;10.410;2023-04-09T08:19:27;102496.06;;;9.73;70.10
10510;BME280;5303;53.266;10.410;2023-04-09T08:21:52;102501.00;;;9.61;68.52
10510;BME280;5303;53.266;10.410;2023-04-09T08:24:18;102502.63;;;9.58;69.57
10510;BME280;5303;53.266;10.410;2023-04-09T08:26:44;102494.00;;;9.63;69.06
10510;BME280;5303;53.266;10.410;2023-04-09T08:29:10;102495.59;;;9.90;68.65
10510;BME280;5303;53.266;10.410;2023-04-09T08:31:37;102492.97;;;9.90;67.74
10510;BME280;5303;53.266;10.410;2023-04-09T08:34:03;102496.28;;;9.81;67.93
10510;BME280;5303;53.266;10.410;2023-04-09T08:36:28;102504.06;;;9.78;67.64
10510;BME280;5303;53.266;10.410;2023-04-09T08:38:53;102506.25;;;9.61;67.57
10510;BME280;5303;53.266;10.410;2023-04-09T08:41:24;102503.47;;;9.88;65.26
10510;BME280;5303;53.266;10.410;2023-04-09T08:43:51;102503.34;;;9.84;64.76
10510;BME280;5303;53.266;10.410;2023-04-09T08:46:17;102507.34;;;9.69;65.78
10510;BME280;5303;53.266;10.410;2023-04-09T08:48:44;102509.09;;;9.69;66.82
10510;BME280;5303;53.266;10.410;2023-04-09T08:51:19;102509.19;;;9.72;67.83
10510;BME280;5303;53.266;10.410;2023-04-09T08:53:45;102506.59;;;9.73;67.31
10510;BME280;5303;53.266;10.410;2023-04-09T08:56:12;102505.97;;;9.82;66.84
10510;BME280;5303;53.266;10.410;2023-04-09T08:58:43;102503.50;;;9.90;65.74
10510;BME280;5303;53.266;10.410;2023-04-09T09:06:25;102507.97;;;10.24;65.09
10510;BME280;5303;53.266;10.410;2023-04-09T09:11:29;102512.41;;;10.26;62.56
10510;BME280;5303;53.266;10.410;2023-04-09T09:14:03;102513.22;;;10.22;61.91
10510;BME280;5303;53.266;10.410;2023-04-09T09:16:29;102510.50;;;9.88;62.34
10510;BME280;5303;53.266;10.410;2023-04-09T09:18:55;102508.03;;;9.62;63.10
10510;BME280;5303;53.266;10.410;2023-04-09T09:21:21;102512.72;;;9.72;64.03
10510;BME280;5303;53.266;10.410;2023-04-09T09:23:47;102503.06;;;10.06;64.92
10510;BME280;5303;53.266;10.410;2023-04-09T09:26:16;102504.91;;;10.10;64.55
10510;BME280;5303;53.266;10.410;2023-04-09T09:28:45;102510.13;;;10.40;63.22
10510;BME280;5303;53.266;10.410;2023-04-09T09:31:11;102512.50;;;10.29;63.49
10510;BME280;5303;53.266;10.410;2023-04-09T09:33:37;102510.56;;;10.22;63.88
10510;BME280;5303;53.266;10.410;2023-04-09T09:36:03;102507.13;;;10.25;63.63
10510;BME280;5303;53.266;10.410;2023-04-09T09:38:29;102499.94;;;10.54;63.10
10510;BME280;5303;53.266;10.410;2023-04-09T09:40:55;102509.94;;;10.68;63.37
10510;BME280;5303;53.266;10.410;2023-04-09T09:43:20;102502.22;;;10.76;62.25
10510;BME280;5303;53.266;10.410;2023-04-09T09:45:46;102500.50;;;10.78;62.83
10510;BME280;5303;53.266;10.410;2023-04-09T09:48:12;102501.59;;;10.88;62.41
10510;BME280;5303;53.266;10.410;2023-04-09T09:50:38;102502.69;;;10.98;62.11
10510;BME280;5303;53.266;10.410;2023-04-09T09:53:08;102486.44;;;11.20;62.12
10510;BME280;5303;53.266;10.410;2023-04-09T09:55:40;102498.28;;;11.39;59.95
10510;BME280;5303;53.266;10.410;2023-04-09T09:58:11;102497.66;;;11.50;59.57
10510;BME280;5303;53.266;10.410;2023-04-09T10:00:40;102500.06;;;11.38;60.05
10510;BME280;5303;53.266;10.410;2023-04-09T10:03:26;102499.59;;;11.17;60.12
10510;BME280;5303;53.266;10.410;2023-04-09T10:05:53;102497.69;;;11.11;59.12
10510;BME280;5303;53.266;10.410;2023-04-09T10:08:20;102498.44;;;11.04;60.40
10510;BME280;5303;53.266;10.410;2023-04-09T10:10:47;102498.06;;;10.87;60.41
10510;BME280;5303;53.266;10.410;2023-04-09T10:13:19;102486.44;;;10.79;60.45
10510;BME280;5303;53.266;10.410;2023-04-09T10:15:46;102488.16;;;10.77;60.52
10510;BME280;5303;53.266;10.410;2023-04-09T10:18:11;102486.38;;;10.76;62.41
10510;BME280;5303;53.266;10.410;2023-04-09T10:20:45;102488.13;;;10.76;61.53
10510;BME280;5303;53.266;10.410;2023-04-09T10:23:37;102487.25;;;10.77;61.82
10510;BME280;5303;53.266;10.410;2023-04-09T10:26:03;102482.44;;;10.96;60.65
10510;BME280;5303;53.266;10.410;2023-04-09T10:28:28;102481.28;;;10.84;60.50
10510;BME280;5303;53.266;10.410;2023-04-09T10:30:54;102473.34;;;10.84;61.37
10510;BME280;5303;53.266;10.410;2023-04-09T10:33:23;102477.53;;;10.74;62.50
10510;BME280;5303;53.266;10.410;2023-04-09T10:35:51;102479.31;;;10.75;62.65
10510;BME280;5303;53.266;10.410;2023-04-09T10:38:44;102472.53;;;10.86;61.72
10510;BME280;5303;53.266;10.410;2023-04-09T10:41:14;102472.16;;;10.71;61.76
10510;BME280;5303;53.266;10.410;2023-04-09T10:43:41;102473.00;;;10.68;60.05
10510;BME280;5303;53.266;10.410;2023-04-09T10:46:38;102469.19;;;10.56;60.76
10510;BME280;5303;53.266;10.410;2023-04-09T10:49:15;102472.69;;;10.55;61.42
10510;BME280;5303;53.266;10.410;2023-04-09T10:51:41;102462.97;;;10.54;61.31
10510;BME280;5303;53.266;10.410;2023-04-09T10:59:35;102455.16;;;10.58;63.16
10510;BME280;5303;53.266;10.410;2023-04-09T11:02:01;102469.25;;;10.98;62.16
10510;BME280;5303;53.266;10.410;2023-04-09T11:04:48;102454.81;;;10.82;61.53
10510;BME280;5303;53.266;10.410;2023-04-09T11:07:22;102455.66;;;10.81;61.74
10510;BME280;5303;53.266;10.410;2023-04-09T11:09:48;102445.72;;;10.68;62.30
10510;BME280;5303;53.266;10.410;2023-04-09T11:12:13;102447.63;;;10.75;62.70
10510;BME280;5303;53.266;10.410;2023-04-09T11:14:38;102445.88;;;10.76;62.57
10510;BME280;5303;53.266;10.410;2023-04-09T11:17:03;102445.63;;;10.63;63.21
10510;BME280;5303;53.266;10.410;2023-04-09T11:19:32;102437.06;;;10.75;61.45
10510;BME280;5303;53.266;10.410;2023-04-09T11:21:57;102438.47;;;10.59;61.27
10510;BME280;5303;53.266;10.410;2023-04-09T11:24:23;102442.59;;;10.48;62.16
10510;BME280;5303;53.266;10.410;2023-04-09T11:26:48;102441.03;;;10.56;62.02
10510;BME280;5303;53.266;10.410;2023-04-09T11:29:14;102437.38;;;10.51;61.87
10510;BME280;5303;53.266;10.410;2023-04-09T11:31:43;102433.56;;;10.76;62.19
10510;BME280;5303;53.266;10.410;2023-04-09T11:34:09;102428.81;;;11.01;59.97
10510;BME280;5303;53.266;10.410;2023-04-09T11:36:36;102425.84;;;10.84;60.07
10510;BME280;5303;53.266;10.410;2023-04-09T11:39:02;102417.78;;;10.79;61.25
10510;BME280;5303;53.266;10.410;2023-04-09T11:41:35;102433.44;;;10.70;62.94
10510;BME280;5303;53.266;10.410;2023-04-09T11:44:02;102422.00;;;10.71;61.55
10510;BME280;5303;53.266;10.410;2023-04-09T11:46:29;102425.72;;;10.79;62.15
10510;BME280;5303;53.266;10.410;2023-04-09T11:48:55;102427.03;;;11.00;61.37
10510;BME280;5303;53.266;10.410;2023-04-09T11:51:21;102423.91;;;11.19;60.47
10510;BME280;5303;53.266;10.410;2023-04-09T11:53:48;102408.47;;;11.40;60.65
10510;BME280;5303;53.266;10.410;2023-04-09T11:56:14;102412.16;;;11.48;59.59
10510;BME280;5303;53.266;10.410;2023-04-09T11:58:44;102414.13;;;11.59;59.11
10510;BME280;5303;53.266;10.410;2023-04-09T12:01:11;102412.00;;;11.86;59.43
10510;BME280;5303;53.266;10.410;2023-04-09T12:03:36;102406.13;;;12.05;57.29
10510;BME280;5303;53.266;10.410;2023-04-09T12:06:02;102412.22;;;11.98;57.72
10510;BME280;5303;53.266;10.410;2023-04-09T12:08:29;102408.88;;;12.10;57.67
10510;BME280;5303;53.266;10.410;2023-04-09T12:10:55;102409.19;;;12.30;56.95
10510;BME280;5303;53.266;10.410;2023-04-09T12:13:20;102413.63;;;12.31;56.91
10510;BME280;5303;53.266;10.410;2023-04-09T12:15:47;102413.19;;;12.61;55.93
10510;BME280;5303;53.266;10.410;2023-04-09T12:18:13;102404.09;;;12.44;54.22
10510;BME280;5303;53.266;10.410;2023-04-09T12:20:40;102407.44;;;12.30;55.43
10510;BME280;5303;53.266;10.410;2023-04-09T12:23:10;102408.28;;;12.28;54.53
10510;BME280;5303;53.266;10.410;2023-04-09T12:25:38;102397.84;;;12.37;55.20
10510;BME280;5303;53.266;10.410;2023-04-09T12:28:04;102406.41;;;12.22;55.16
10510;BME280;5303;53.266;10.410;2023-04-09T12:30:31;102405.84;;;12.42;56.68
10510;BME280;5303;53.266;10.410;2023-04-09T12:32:56;102403.34;;;12.52;55.94
10510;BME280;5303;53.266;10.410;2023-04-09T12:35:22;102404.69;;;12.26;57.28
10510;BME280;5303;53.266;10.410;2023-04-09T12:37:48;102402.19;;;12.35;57.39
10510;BME280;5303;53.266;10.410;2023-04-09T12:40:13;102398.44;;;12.18;56.31
10510;BME280;5303;53.266;10.410;2023-04-09T12:42:40;102396.59;;;12.15;56.67
10510;BME280;5303;53.266;10.410;2023-04-09T12:45:10;102395.94;;;12.27;56.49
10510;BME280;5303;53.266;10.410;2023-04-09T12:47:36;102392.31;;;12.22;56.95
10510;BME280;5303;53.266;10.410;2023-04-09T12:50:06;102392.97;;;12.07;57.30
10510;BME280;5303;53.266;10.410;2023-04-09T12:52:32;102387.72;;;12.11;57.42
10510;BME280;5303;53.266;10.410;2023-04-09T12:54:58;102380.59;;;12.06;57.61
10510;BME280;5303;53.266;10.410;2023-04-09T12:57:24;102382.47;;;12.15;57.57
10510;BME280;5303;53.266;10.410;2023-04-09T12:59:49;102392.16;;;12.13;58.24
10510;BME280;5303;53.266;10.410;2023-04-09T13:02:15;102370.78;;;11.99;58.67
10510;BME280;5303;53.266;10.410;2023-04-09T13:04:40;102374.28;;;11.96;58.95
10510;BME280;5303;53.266;10.410;2023-04-09T13:07:05;102373.47;;;12.03;57.11
10510;BME280;5303;53.266;10.410;2023-04-09T13:09:31;102372.56;;;12.01;58.14
10510;BME280;5303;53.266;10.410;2023-04-09T13:11:56;102364.06;;;12.21;57.16
10510;BME280;5303;53.266;10.410;2023-04-09T13:14:21;102358.03;;;12.31;56.36